createdAt,value
2018-12-09T00:00:25.464Z,31.70
2018-12-09T00:02:54.239Z,34.53
2018-12-09T00:05:22.968Z,48.50
2018-12-09T00:07:51.606Z,30.13
2018-12-09T00:10:20.223Z,46.30
2018-12-09T00:12:48.853Z,44.53
2018-12-09T00:15:17.471Z,34.60
2018-12-09T00:17:46.093Z,30.87
2018-12-09T00:20:14.746Z,49.73
2018-12-09T00:22:43.378Z,39.43
2018-12-09T00:25:12.043Z,33.07
2018-12-09T00:27:40.697Z,27.30
2018-12-09T00:30:09.441Z,27.70
2018-12-09T00:32:38.095Z,37.67
2018-12-09T00:35:07.152Z,39.13
2018-12-09T00:37:35.802Z,36.40
2018-12-09T00:40:05.044Z,43.27
2018-12-09T00:42:33.662Z,25.13
2018-12-09T00:45:02.299Z,42.17
2018-12-09T00:47:30.909Z,32.90
2018-12-09T00:49:59.511Z,26.67
2018-12-09T00:52:28.144Z,35.70
2018-12-09T00:54:56.801Z,41.53
2018-12-09T00:57:25.438Z,32.40
2018-12-09T00:59:54.078Z,24.37
2018-12-09T01:02:22.693Z,30.33
2018-12-09T01:04:51.341Z,42.57
2018-12-09T01:07:20.030Z,42.80
2018-12-09T01:09:48.630Z,32.33
2018-12-09T01:12:17.261Z,31.53
2018-12-09T01:14:46.003Z,31.23
2018-12-09T01:17:14.631Z,34.43
2018-12-09T01:19:43.360Z,36.13
2018-12-09T01:22:11.973Z,35.73
2018-12-09T01:24:40.587Z,42.03
2018-12-09T01:27:09.217Z,33.13
2018-12-09T01:29:37.833Z,30.70
2018-12-09T01:32:06.523Z,31.53
2018-12-09T01:34:35.163Z,44.30
2018-12-09T01:37:03.775Z,48.87
2018-12-09T01:39:32.406Z,37.37
2018-12-09T01:42:01.037Z,46.73
2018-12-09T01:44:30.114Z,38.43
2018-12-09T01:46:58.740Z,40.57
2018-12-09T01:49:27.353Z,49.43
2018-12-09T01:51:55.991Z,38.07
2018-12-09T01:54:24.624Z,29.07
2018-12-09T01:56:53.366Z,28.90
2018-12-09T01:59:22.014Z,26.53
2018-12-09T02:01:50.659Z,47.43
2018-12-09T02:04:19.711Z,25.90
2018-12-09T02:06:48.370Z,31.53
2018-12-09T02:09:17.166Z,34.30
2018-12-09T02:11:46.064Z,34.33
2018-12-09T02:14:14.702Z,38.33
2018-12-09T02:16:43.482Z,43.70
2018-12-09T02:19:18.515Z,42.37
2018-12-09T02:21:47.377Z,45.13
2018-12-09T02:24:16.672Z,34.00
2018-12-09T02:26:45.570Z,52.90
2018-12-09T02:29:14.218Z,42.57
2018-12-09T02:31:42.913Z,57.53
2018-12-09T02:34:11.764Z,39.17
2018-12-09T02:36:40.997Z,41.43
2018-12-09T02:39:11.704Z,42.47
2018-12-09T02:41:40.369Z,45.07
2018-12-09T02:44:09.013Z,40.63
2018-12-09T02:46:38.009Z,37.90
2018-12-09T02:49:06.650Z,43.77
2018-12-09T02:51:35.434Z,53.53
2018-12-09T02:54:04.220Z,35.17
2018-12-09T02:56:32.877Z,37.33
2018-12-09T02:59:02.095Z,40.50
2018-12-09T03:01:30.737Z,49.60
2018-12-09T03:03:59.368Z,51.23
2018-12-09T03:06:28.023Z,36.80
2018-12-09T03:08:56.789Z,33.17
2018-12-09T03:11:25.424Z,31.80
2018-12-09T03:13:54.016Z,46.57
2018-12-09T03:16:22.901Z,45.17
2018-12-09T03:18:51.518Z,26.03
2018-12-09T03:21:20.127Z,40.90
2018-12-09T03:23:48.738Z,38.90
2018-12-09T03:26:17.379Z,45.27
2018-12-09T03:28:45.990Z,42.37
2018-12-09T03:31:14.740Z,35.83
2018-12-09T03:33:43.395Z,36.17
2018-12-09T03:36:12.019Z,38.60
2018-12-09T03:38:40.668Z,46.37
2018-12-09T03:41:09.490Z,34.63
2018-12-09T03:43:38.560Z,25.20
2018-12-09T03:46:07.326Z,33.73
2018-12-09T03:48:35.941Z,49.37
2018-12-09T03:51:04.589Z,31.83
2018-12-09T03:53:33.534Z,34.67
2018-12-09T03:56:02.174Z,33.50
2018-12-09T03:58:30.845Z,40.30
2018-12-09T04:00:59.583Z,26.23
2018-12-09T04:03:28.239Z,39.90
2018-12-09T04:05:56.830Z,45.03
2018-12-09T04:08:25.524Z,54.10
2018-12-09T04:10:54.132Z,38.60
2018-12-09T04:13:22.761Z,49.03
2018-12-09T04:15:51.383Z,37.30
2018-12-09T04:18:19.994Z,43.17
2018-12-09T04:20:48.640Z,34.10
2018-12-09T04:23:17.267Z,31.67
2018-12-09T04:25:45.882Z,43.50
2018-12-09T04:28:15.051Z,33.17
2018-12-09T04:30:43.789Z,36.70
2018-12-09T04:33:12.416Z,39.53
2018-12-09T04:35:41.046Z,29.47
2018-12-09T04:38:09.664Z,36.17
2018-12-09T04:40:38.312Z,28.87
2018-12-09T04:43:06.965Z,39.80
2018-12-09T04:45:35.580Z,44.07
2018-12-09T04:48:04.221Z,29.50
2018-12-09T04:50:33.352Z,44.33
2018-12-09T04:53:02.087Z,30.50
2018-12-09T04:55:31.359Z,41.43
2018-12-09T04:57:59.990Z,37.37
2018-12-09T05:00:39.735Z,39.73
2018-12-09T05:03:08.488Z,45.00
2018-12-09T05:05:37.089Z,38.73
2018-12-09T05:08:05.734Z,31.03
2018-12-09T05:10:34.374Z,20.20
2018-12-09T05:13:03.178Z,33.80
2018-12-09T05:15:31.968Z,35.30
2018-12-09T05:18:00.570Z,30.17
2018-12-09T05:20:29.199Z,31.50
2018-12-09T05:22:57.831Z,19.43
2018-12-09T05:25:27.674Z,28.03
2018-12-09T05:27:56.444Z,29.67
2018-12-09T05:30:25.675Z,33.50
2018-12-09T05:32:55.273Z,34.23
2018-12-09T05:35:25.666Z,26.60
2018-12-09T05:37:54.297Z,26.00
2018-12-09T05:40:23.478Z,43.03
2018-12-09T05:42:52.102Z,36.40
2018-12-09T05:45:20.711Z,35.73
2018-12-09T05:47:49.331Z,44.70
2018-12-09T05:50:17.978Z,30.33
2018-12-09T05:52:47.202Z,29.57
2018-12-09T05:55:15.846Z,27.93
2018-12-09T05:57:45.003Z,21.60
2018-12-09T06:00:13.646Z,27.90
2018-12-09T06:02:53.327Z,32.60
2018-12-09T06:05:22.022Z,23.67
2018-12-09T06:07:51.435Z,12.30
2018-12-09T06:10:20.079Z,20.77
2018-12-09T06:12:48.721Z,25.33
2018-12-09T06:15:17.357Z,22.63
2018-12-09T06:17:45.970Z,29.10
2018-12-09T06:20:14.650Z,22.47
2018-12-09T06:22:43.282Z,26.60
2018-12-09T06:25:11.926Z,19.17
2018-12-09T06:27:40.580Z,22.07
2018-12-09T06:30:10.835Z,23.90
2018-12-09T06:32:39.546Z,30.70
2018-12-09T06:35:08.869Z,18.43
2018-12-09T06:37:37.519Z,30.63
2018-12-09T06:40:07.003Z,31.30
2018-12-09T06:42:36.086Z,23.17
2018-12-09T06:45:05.746Z,27.20
2018-12-09T06:47:34.329Z,22.13
2018-12-09T06:50:03.163Z,31.63
2018-12-09T06:52:31.818Z,30.53
2018-12-09T06:55:00.460Z,29.37
2018-12-09T06:57:29.091Z,17.73
2018-12-09T06:59:58.912Z,18.40
2018-12-09T07:02:27.578Z,24.73
2018-12-09T07:04:56.206Z,30.63
2018-12-09T07:07:24.858Z,25.63
2018-12-09T07:09:53.518Z,19.00
2018-12-09T07:12:22.137Z,26.40
2018-12-09T07:14:50.761Z,27.73
2018-12-09T07:17:19.399Z,14.43
2018-12-09T07:19:48.080Z,29.33
2018-12-09T07:22:16.671Z,23.90
2018-12-09T07:24:45.294Z,21.63
2018-12-09T07:27:14.398Z,26.87
2018-12-09T07:29:43.033Z,17.67
2018-12-09T07:32:11.635Z,25.57
2018-12-09T07:34:40.262Z,16.33
2018-12-09T07:37:09.862Z,12.77
2018-12-09T07:39:38.458Z,17.73
2018-12-09T07:42:07.102Z,27.43
2018-12-09T07:44:35.744Z,22.03
2018-12-09T07:47:04.402Z,22.07
2018-12-09T07:49:33.014Z,21.03
2018-12-09T07:52:01.943Z,12.03
2018-12-09T07:54:30.902Z,20.70
2018-12-09T07:56:59.517Z,13.70
2018-12-09T07:59:28.198Z,16.20
2018-12-09T08:01:56.956Z,15.00
2018-12-09T08:04:25.615Z,17.90
2018-12-09T08:06:54.239Z,23.50
2018-12-09T08:09:22.870Z,17.00
2018-12-09T08:11:51.522Z,14.13
2018-12-09T08:14:20.247Z,11.40
2018-12-09T08:16:48.901Z,15.90
2018-12-09T08:19:17.557Z,14.63
2018-12-09T08:21:46.172Z,15.03
2018-12-09T08:24:14.805Z,13.93
2018-12-09T08:26:43.488Z,17.27
2018-12-09T08:29:12.135Z,11.33
2018-12-09T08:31:41.047Z,24.67
2018-12-09T08:34:09.785Z,16.03
2018-12-09T08:36:38.424Z,27.40
2018-12-09T08:39:07.210Z,17.93
2018-12-09T08:41:35.838Z,20.90
2018-12-09T08:44:04.506Z,33.30
2018-12-09T08:46:33.150Z,23.83
2018-12-09T08:49:01.840Z,15.93
2018-12-09T08:51:30.610Z,13.73
2018-12-09T08:53:59.336Z,13.43
2018-12-09T08:56:28.342Z,18.00
2018-12-09T08:58:56.985Z,11.37
2018-12-09T09:01:25.660Z,14.83
2018-12-09T09:03:54.542Z,15.17
2018-12-09T09:06:23.195Z,16.13
2018-12-09T09:08:51.808Z,15.83
2018-12-09T09:11:20.930Z,21.30
2018-12-09T09:13:49.597Z,28.13
2018-12-09T09:16:18.205Z,8.43
2018-12-09T09:18:46.823Z,13.63
2018-12-09T09:21:15.479Z,12.80
2018-12-09T09:23:44.161Z,17.07
2018-12-09T09:26:12.771Z,9.40
2018-12-09T09:28:42.957Z,18.73
2018-12-09T09:31:11.764Z,22.33
2018-12-09T09:33:40.433Z,21.47
2018-12-09T09:36:09.199Z,9.77
2018-12-09T09:38:37.878Z,12.73
2018-12-09T09:41:06.489Z,10.57
2018-12-09T09:43:35.106Z,8.67
2018-12-09T09:46:03.782Z,14.57
2018-12-09T09:48:32.396Z,7.63
2018-12-09T09:51:01.013Z,9.50
2018-12-09T09:53:29.658Z,10.57
2018-12-09T09:55:58.272Z,12.80
2018-12-09T09:58:26.898Z,8.50
2018-12-09T10:00:55.516Z,10.30
2018-12-09T10:03:25.975Z,12.20
2018-12-09T10:05:54.891Z,10.60
2018-12-09T10:08:24.196Z,11.90
2018-12-09T10:10:52.814Z,8.67
2018-12-09T10:13:21.456Z,14.03
2018-12-09T10:15:50.205Z,15.57
2018-12-09T10:18:18.845Z,8.67
2018-12-09T10:20:47.477Z,11.63
2018-12-09T10:23:16.212Z,15.60
2018-12-09T10:25:44.911Z,12.10
2018-12-09T10:28:13.527Z,10.07
2018-12-09T10:30:42.131Z,10.57
2018-12-09T10:33:10.775Z,12.03
2018-12-09T10:35:39.473Z,15.67
2018-12-09T10:38:08.126Z,14.23
2018-12-09T10:40:36.780Z,12.43
2018-12-09T10:43:05.387Z,7.03
2018-12-09T10:45:34.002Z,7.40
2018-12-09T10:48:02.615Z,14.53
2018-12-09T10:50:31.239Z,17.00
2018-12-09T10:52:59.894Z,11.97
2018-12-09T10:55:28.543Z,14.27
2018-12-09T10:57:57.199Z,10.50
2018-12-09T11:00:31.064Z,10.53
2018-12-09T11:03:00.462Z,8.43
2018-12-09T11:05:29.066Z,12.03
2018-12-09T11:07:57.725Z,15.30
2018-12-09T11:10:26.366Z,10.03
2018-12-09T11:12:55.038Z,9.77
2018-12-09T11:15:23.692Z,7.63
2018-12-09T11:17:52.309Z,4.97
2018-12-09T11:20:20.975Z,9.90
2018-12-09T11:22:49.607Z,5.13
2018-12-09T11:25:18.240Z,9.60
2018-12-09T11:27:46.847Z,8.33
2018-12-09T11:30:15.501Z,5.83
2018-12-09T11:32:44.126Z,8.37
2018-12-09T11:35:12.779Z,5.57
2018-12-09T11:37:41.410Z,10.30
2018-12-09T11:40:10.032Z,8.70
2018-12-09T11:42:38.698Z,9.57
2018-12-09T11:45:07.530Z,13.43
2018-12-09T11:47:36.181Z,14.30
2018-12-09T11:50:05.477Z,6.27
2018-12-09T11:52:34.138Z,7.10
2018-12-09T11:55:02.756Z,10.63
2018-12-09T11:57:31.368Z,10.00
2018-12-09T12:00:00.006Z,7.17
2018-12-09T12:02:28.620Z,6.13
2018-12-09T12:04:57.265Z,9.33
2018-12-09T12:07:25.878Z,5.70
2018-12-09T12:09:54.508Z,11.77
2018-12-09T12:12:23.162Z,7.13
2018-12-09T12:14:51.769Z,11.17
2018-12-09T12:17:20.430Z,8.90
2018-12-09T12:19:49.043Z,11.90
2018-12-09T12:22:17.693Z,11.40
2018-12-09T12:24:46.325Z,6.60
2018-12-09T12:27:14.979Z,12.63
2018-12-09T12:29:43.632Z,32.23
2018-12-09T12:32:12.299Z,12.93
2018-12-09T12:34:40.935Z,12.90
2018-12-09T12:37:09.533Z,20.83
2018-12-09T12:39:38.194Z,14.83
2018-12-09T12:42:06.837Z,16.97
2018-12-09T12:44:35.753Z,22.70
2018-12-09T12:47:04.531Z,17.90
2018-12-09T12:49:33.367Z,10.83
2018-12-09T12:52:02.397Z,14.17
2018-12-09T12:54:31.047Z,14.93
2018-12-09T12:56:59.754Z,12.23
2018-12-09T12:59:28.396Z,15.97
2018-12-09T13:01:57.023Z,9.70
2018-12-09T13:04:25.647Z,11.30
2018-12-09T13:06:54.371Z,15.17
2018-12-09T13:09:22.985Z,13.70
2018-12-09T13:11:51.731Z,9.00
2018-12-09T13:14:20.653Z,12.57
2018-12-09T13:16:49.467Z,10.90
2018-12-09T13:19:18.187Z,13.73
2018-12-09T13:21:46.806Z,11.17
2018-12-09T13:24:15.430Z,12.67
2018-12-09T13:26:44.040Z,13.27
2018-12-09T13:29:12.832Z,11.63
2018-12-09T13:31:41.430Z,8.57
2018-12-09T13:34:10.066Z,6.27
2018-12-09T13:36:39.570Z,11.07
2018-12-09T13:39:08.306Z,14.03
2018-12-09T13:41:36.943Z,6.30
2018-12-09T13:44:05.603Z,19.17
2018-12-09T13:46:34.242Z,11.50
2018-12-09T13:49:02.981Z,15.20
2018-12-09T13:51:31.671Z,21.20
2018-12-09T13:54:00.571Z,13.30
2018-12-09T13:56:29.207Z,23.67
2018-12-09T13:58:57.822Z,20.00
2018-12-09T14:01:26.524Z,13.67
2018-12-09T14:03:55.229Z,19.17
2018-12-09T14:06:23.969Z,14.17
2018-12-09T14:08:52.578Z,10.13
2018-12-09T14:11:21.328Z,15.57
2018-12-09T14:13:49.977Z,8.10
2018-12-09T14:16:19.022Z,17.03
2018-12-09T14:18:47.863Z,10.77
2018-12-09T14:21:16.543Z,19.07
2018-12-09T14:23:45.166Z,14.33
2018-12-09T14:26:13.826Z,12.53
2018-12-09T14:28:42.435Z,16.77
2018-12-09T14:31:11.046Z,11.90
2018-12-09T14:33:39.651Z,18.50
2018-12-09T14:36:08.642Z,9.37
2018-12-09T14:38:37.919Z,16.70
2018-12-09T14:41:06.530Z,15.43
2018-12-09T14:43:35.160Z,12.57
2018-12-09T14:46:03.831Z,11.50
2018-12-09T14:48:32.458Z,14.87
2018-12-09T14:51:01.050Z,11.47
2018-12-09T14:53:29.650Z,20.27
2018-12-09T14:55:58.262Z,15.33
2018-12-09T14:58:26.898Z,16.13
2018-12-09T15:00:55.518Z,12.53
2018-12-09T15:03:24.150Z,17.93
2018-12-09T15:05:52.786Z,13.37
2018-12-09T15:08:21.469Z,18.97
2018-12-09T15:10:50.104Z,8.17
2018-12-09T15:13:18.774Z,12.43
2018-12-09T15:15:47.424Z,10.13
2018-12-09T15:18:16.070Z,16.53
2018-12-09T15:20:44.718Z,18.10
2018-12-09T15:23:13.711Z,13.73
2018-12-09T15:25:42.340Z,16.07
2018-12-09T15:28:10.959Z,15.80
2018-12-09T15:30:39.827Z,14.30
2018-12-09T15:33:08.476Z,13.93
2018-12-09T15:35:37.121Z,17.53
2018-12-09T15:38:05.808Z,21.20
2018-12-09T15:40:34.480Z,10.43
2018-12-09T15:43:03.243Z,10.53
2018-12-09T15:45:31.926Z,10.07
2018-12-09T15:48:00.580Z,10.97
2018-12-09T15:50:29.197Z,9.20
2018-12-09T15:52:57.850Z,15.07
2018-12-09T15:55:27.029Z,7.73
2018-12-09T15:57:55.658Z,7.77
2018-12-09T16:00:26.316Z,13.20
2018-12-09T16:02:54.927Z,12.93
2018-12-09T16:05:23.580Z,12.10
2018-12-09T16:07:52.275Z,18.73
2018-12-09T16:10:20.955Z,14.27
2018-12-09T16:12:49.657Z,13.10
2018-12-09T16:15:18.324Z,10.37
2018-12-09T16:17:47.007Z,16.50
2018-12-09T16:20:15.701Z,12.97
2018-12-09T16:22:46.352Z,15.97
2018-12-09T16:25:15.154Z,18.40
2018-12-09T16:27:44.737Z,18.73
2018-12-09T16:30:14.070Z,15.63
2018-12-09T16:32:43.636Z,15.40
2018-12-09T16:35:12.446Z,19.30
2018-12-09T16:37:42.112Z,15.80
2018-12-09T16:40:10.858Z,13.87
2018-12-09T16:42:40.179Z,20.57
2018-12-09T16:45:09.066Z,18.57
2018-12-09T16:47:39.191Z,14.53
2018-12-09T16:50:08.327Z,13.13
2018-12-09T16:52:37.011Z,14.43
2018-12-09T16:55:05.975Z,9.00
2018-12-09T16:57:34.701Z,18.30
2018-12-09T17:00:03.426Z,14.03
2018-12-09T17:02:32.366Z,15.93
2018-12-09T17:05:01.089Z,20.63
2018-12-09T17:07:29.776Z,19.13
2018-12-09T17:09:58.489Z,13.90
2018-12-09T17:12:27.285Z,20.13
2018-12-09T17:14:55.966Z,15.90
2018-12-09T17:17:24.598Z,17.33
2018-12-09T17:19:53.266Z,12.33
2018-12-09T17:22:21.881Z,19.13
2018-12-09T17:24:51.006Z,17.00
2018-12-09T17:27:20.330Z,9.63
2018-12-09T17:29:49.025Z,14.23
2018-12-09T17:32:17.741Z,15.17
2018-12-09T17:34:47.253Z,14.73
2018-12-09T17:37:15.907Z,8.90
2018-12-09T17:39:45.351Z,10.53
2018-12-09T17:42:14.045Z,10.77
2018-12-09T17:44:43.064Z,9.67
2018-12-09T17:47:11.727Z,11.40
2018-12-09T17:49:40.428Z,14.57
2018-12-09T17:52:09.144Z,13.63
2018-12-09T17:54:37.857Z,18.03
2018-12-09T17:57:06.498Z,20.90
2018-12-09T17:59:35.150Z,14.33
2018-12-09T18:02:05.286Z,10.87
2018-12-09T18:04:33.927Z,15.00
2018-12-09T18:07:02.654Z,13.73
2018-12-09T18:09:31.306Z,17.97
2018-12-09T18:11:59.952Z,20.73
2018-12-09T18:14:28.576Z,16.00
2018-12-09T18:16:57.265Z,11.37
2018-12-09T18:19:25.890Z,12.83
2018-12-09T18:21:54.538Z,10.93
2018-12-09T18:24:23.352Z,13.07
2018-12-09T18:26:52.006Z,17.27
2018-12-09T18:29:20.653Z,12.03
2018-12-09T18:31:49.292Z,15.80
2018-12-09T18:34:17.976Z,13.57
2018-12-09T18:36:46.650Z,11.10
2018-12-09T18:39:15.309Z,15.37
2018-12-09T18:41:44.577Z,15.17
2018-12-09T18:44:14.049Z,17.03
2018-12-09T18:46:42.702Z,16.80
2018-12-09T18:49:11.315Z,19.43
2018-12-09T18:51:40.126Z,19.50
2018-12-09T18:54:08.954Z,12.27
2018-12-09T18:56:37.658Z,16.50
2018-12-09T18:59:06.499Z,14.17
2018-12-09T19:01:35.299Z,18.63
2018-12-09T19:04:04.801Z,26.27
2018-12-09T19:06:33.493Z,15.57
2018-12-09T19:09:02.167Z,26.03
2018-12-09T19:11:32.705Z,15.90
2018-12-09T19:14:01.348Z,15.13
2018-12-09T19:16:30.052Z,17.73
2018-12-09T19:18:58.711Z,14.37
2018-12-09T19:21:27.361Z,13.77
2018-12-09T19:23:56.032Z,11.63
2018-12-09T19:26:24.664Z,13.97
2018-12-09T19:28:53.341Z,9.47
2018-12-09T19:31:21.982Z,14.87
2018-12-09T19:33:50.639Z,19.53
2018-12-09T19:36:19.254Z,17.00
2018-12-09T19:39:01.091Z,20.90
2018-12-09T19:41:29.719Z,21.57
2018-12-09T19:43:58.361Z,18.00
2018-12-09T19:46:27.057Z,13.67
2018-12-09T19:48:55.682Z,17.73
2018-12-09T19:51:24.357Z,22.07
2018-12-09T19:53:53.008Z,15.20
2018-12-09T19:56:21.674Z,12.67
2018-12-09T19:58:50.463Z,18.37
2018-12-09T20:01:21.666Z,15.77
2018-12-09T20:03:50.446Z,11.93
2018-12-09T20:06:19.146Z,13.53
2018-12-09T20:08:47.954Z,12.83
2018-12-09T20:11:16.719Z,13.83
2018-12-09T20:13:45.388Z,12.80
2018-12-09T20:16:14.082Z,13.90
2018-12-09T20:18:42.938Z,16.17
2018-12-09T20:21:11.754Z,14.33
2018-12-09T20:23:40.434Z,16.87
2018-12-09T20:26:09.181Z,12.10
2018-12-09T20:28:37.895Z,17.40
2018-12-09T20:31:06.576Z,20.07
2018-12-09T20:33:35.316Z,20.60
2018-12-09T20:36:04.023Z,16.43
2018-12-09T20:38:32.679Z,22.77
2018-12-09T20:41:01.331Z,24.40
2018-12-09T20:43:30.015Z,24.13
2018-12-09T20:45:58.776Z,15.80
2018-12-09T20:48:27.439Z,18.60
2018-12-09T20:50:56.102Z,19.50
2018-12-09T20:53:24.742Z,16.00
2018-12-09T20:55:54.011Z,22.57
2018-12-09T20:58:22.655Z,14.73
2018-12-09T21:00:51.375Z,22.53
2018-12-09T21:03:20.032Z,19.93
2018-12-09T21:05:48.710Z,15.47
2018-12-09T21:08:17.778Z,20.33
2018-12-09T21:10:46.411Z,18.20
2018-12-09T21:13:15.078Z,13.23
2018-12-09T21:15:43.779Z,13.77
2018-12-09T21:18:12.502Z,20.90
2018-12-09T21:20:41.198Z,18.53
2018-12-09T21:23:10.702Z,20.60
2018-12-09T21:25:39.456Z,17.63
2018-12-09T21:28:08.267Z,15.87
2018-12-09T21:30:36.981Z,14.87
2018-12-09T21:33:05.686Z,13.73
2018-12-09T21:35:35.310Z,17.07
2018-12-09T21:38:03.997Z,14.17
2018-12-09T21:40:32.603Z,19.27
2018-12-09T21:43:01.210Z,12.13
2018-12-09T21:45:29.819Z,14.03
2018-12-09T21:47:58.437Z,19.37
2018-12-09T21:50:27.047Z,18.37
2018-12-09T21:52:55.702Z,17.83
2018-12-09T21:55:24.393Z,21.47
2018-12-09T21:57:53.072Z,11.43
2018-12-09T22:00:21.794Z,18.60
2018-12-09T22:02:50.454Z,15.83
2018-12-09T22:05:19.122Z,13.07
2018-12-09T22:07:47.827Z,12.40
2018-12-09T22:10:16.526Z,17.87
2018-12-09T22:12:45.234Z,16.73
2018-12-09T22:15:14.051Z,15.23
2018-12-09T22:17:42.665Z,19.73
2018-12-09T22:20:11.501Z,17.43
2018-12-09T22:22:40.328Z,18.07
2018-12-09T22:25:09.035Z,16.50
2018-12-09T22:27:37.758Z,20.00
2018-12-09T22:30:06.730Z,17.10
2018-12-09T22:32:35.485Z,8.07
2018-12-09T22:35:04.570Z,13.67
2018-12-09T22:37:33.387Z,16.13
2018-12-09T22:40:02.047Z,14.47
2018-12-09T22:42:31.036Z,15.57
2018-12-09T22:44:59.806Z,16.20
2018-12-09T22:47:28.565Z,11.07
2018-12-09T22:49:57.173Z,9.83
2018-12-09T22:52:25.778Z,13.47
2018-12-09T22:54:54.409Z,8.23
2018-12-09T22:57:23.062Z,17.40
2018-12-09T22:59:51.683Z,10.43
2018-12-09T23:02:25.402Z,16.43
2018-12-09T23:04:54.046Z,13.00
2018-12-09T23:07:27.776Z,12.90
2018-12-09T23:09:56.387Z,13.43
2018-12-09T23:12:25.070Z,11.00
2018-12-09T23:14:53.686Z,14.63
2018-12-09T23:17:22.278Z,9.50
2018-12-09T23:19:50.911Z,8.70
2018-12-09T23:22:19.565Z,15.00
2018-12-09T23:24:48.348Z,16.00
2018-12-09T23:27:16.978Z,12.47
2018-12-09T23:29:45.586Z,16.47
2018-12-09T23:32:14.206Z,15.70
2018-12-09T23:34:42.861Z,10.93
2018-12-09T23:37:11.481Z,13.87
2018-12-09T23:39:40.109Z,16.60
2018-12-09T23:42:08.743Z,15.30
2018-12-09T23:44:37.497Z,9.03
2018-12-09T23:47:06.146Z,15.60
2018-12-09T23:49:34.790Z,12.57
2018-12-09T23:52:03.398Z,8.43
2018-12-09T23:54:32.060Z,17.20
2018-12-09T23:57:00.682Z,9.50
2018-12-09T23:59:29.314Z,12.00
